Time,TemperatureF,DewpointF,PressureIn,WindDirection,WindDirectionDegrees,WindSpeedMPH,WindSpeedGustMPH,Humidity,HourlyPrecipIn,Conditions,Clouds,dailyrainin,SoftwareType,DateUTC
2013-07-04 00:02:00,65.0,64.0,30.30,West,270,2.0,7.0,98,0.03,,,1.35,,2013-07-04 04:02:00,
2013-07-04 00:11:00,65.0,64.0,30.30,West,269,2.0,5.0,98,0.09,,,1.41,,2013-07-04 04:11:00,
2013-07-04 00:33:00,65.0,64.0,30.30,North,0,0.0,5.0,98,0.23,,,1.55,,2013-07-04 04:33:00,
2013-07-04 01:02:00,65.0,64.0,30.31,WSW,255,2.0,10.0,98,0.22,,,1.56,,2013-07-04 05:02:00,
2013-07-04 01:12:00,65.0,64.0,30.31,WSW,251,3.0,13.0,97,0.16,,,1.54,,2013-07-04 05:12:00,
2013-07-04 01:33:00,65.0,64.0,30.31,WSW,248,3.0,10.0,97,0.02,,,1.53,,2013-07-04 05:33:00,
2013-07-04 01:43:00,65.0,64.0,30.31,WSW,243,4.0,10.0,97,0.01,,,1.52,,2013-07-04 05:43:00,
2013-07-04 02:01:00,65.0,64.0,30.31,WSW,240,4.0,12.0,97,0.06,,,1.56,,2013-07-04 06:01:00,
2013-07-04 02:11:00,65.0,64.0,30.31,WSW,242,2.0,9.0,97,0.11,,,1.60,,2013-07-04 06:11:00,
2013-07-04 02:22:00,65.0,64.0,30.31,WSW,242,3.0,10.0,97,0.11,,,1.59,,2013-07-04 06:22:00,
2013-07-04 02:34:00,65.0,64.0,30.31,WSW,242,3.0,10.0,97,0.11,,,1.59,,2013-07-04 06:34:00,
2013-07-04 02:43:00,65.0,64.0,30.31,WSW,243,4.0,14.0,97,0.25,,,1.74,,2013-07-04 06:43:00,
2013-07-04 02:52:00,64.0,63.0,30.30,WSW,256,2.0,9.0,97,0.21,,,1.75,,2013-07-04 06:52:00,
2013-07-04 03:02:00,64.0,63.0,30.30,WSW,256,2.0,9.0,97,0.21,,,1.75,,2013-07-04 07:02:00,
2013-07-04 03:12:00,65.0,64.0,30.30,WSW,241,3.0,11.0,97,0.16,,,1.75,,2013-07-04 07:12:00,
2013-07-04 03:22:00,65.0,64.0,30.30,SW,232,2.0,11.0,97,0.16,,,1.73,,2013-07-04 07:22:00,
2013-07-04 03:34:00,65.0,64.0,30.30,SW,232,2.0,11.0,97,0.16,,,1.73,,2013-07-04 07:34:00,
2013-07-04 03:43:00,65.0,64.0,30.30,SW,234,2.0,8.0,97,0.01,,,1.73,,2013-07-04 07:43:00,
2013-07-04 03:52:00,65.0,64.0,30.30,SW,234,2.0,8.0,97,0.01,,,1.73,,2013-07-04 07:52:00,
2013-07-04 04:02:00,65.0,64.0,30.30,West,259,2.0,9.0,98,0.00,,,1.73,,2013-07-04 08:02:00,
2013-07-04 04:11:00,65.0,64.0,30.30,SW,233,1.0,6.0,98,0.00,,,1.73,,2013-07-04 08:11:00,
2013-07-04 04:22:00,65.0,64.0,30.30,SW,233,1.0,6.0,98,0.00,,,1.73,,2013-07-04 08:22:00,
2013-07-04 04:33:00,65.0,64.0,30.30,SW,214,2.0,9.0,97,0.00,,,1.73,,2013-07-04 08:33:00,
2013-07-04 04:42:00,65.0,64.0,30.31,North,0,0.0,4.0,97,0.05,,,1.74,,2013-07-04 08:42:00,
2013-07-04 04:53:00,65.0,64.0,30.30,North,0,0.0,5.0,97,0.06,,,1.74,,2013-07-04 08:53:00,
2013-07-04 05:02:00,65.0,64.0,30.30,North,0,0.0,5.0,97,0.06,,,1.74,,2013-07-04 09:02:00,
2013-07-04 05:11:00,65.0,64.0,30.30,WNW,284,1.0,6.0,97,0.06,,,1.74,,2013-07-04 09:11:00,
2013-07-04 05:22:00,65.0,64.0,30.30,WSW,250,2.0,5.0,98,0.06,,,1.74,,2013-07-04 09:22:00,
2013-07-04 05:32:00,65.0,64.0,30.30,WSW,250,2.0,5.0,98,0.06,,,1.74,,2013-07-04 09:32:00,
2013-07-04 05:42:00,65.0,64.0,30.31,SW,227,2.0,8.0,98,0.02,,,1.75,,2013-07-04 09:42:00,
2013-07-04 05:52:00,65.0,64.0,30.31,SW,227,2.0,8.0,98,0.02,,,1.75,,2013-07-04 09:52:00,
2013-07-04 06:01:00,65.0,64.0,30.31,WSW,251,1.0,4.0,98,0.04,,,1.77,,2013-07-04 10:01:00,
2013-07-04 06:11:00,64.0,63.0,30.31,North,0,0.0,6.0,96,0.44,,,2.17,,2013-07-04 10:11:00,
2013-07-04 06:34:00,63.0,62.0,30.31,North,0,0.0,3.0,97,0.95,,,2.68,,2013-07-04 10:34:00,
2013-07-04 06:43:00,64.0,63.0,30.32,NW,313,1.0,8.0,96,0.99,,,2.73,,2013-07-04 10:43:00,
2013-07-04 06:53:00,64.0,63.0,30.32,NW,313,1.0,8.0,96,0.99,,,2.73,,2013-07-04 10:53:00,
2013-07-04 07:02:00,64.0,63.0,30.32,West,272,2.0,6.0,96,0.96,,,2.73,,2013-07-04 11:02:00,
2013-07-04 07:22:00,64.0,63.0,30.32,WSW,242,2.0,7.0,95,0.56,,,2.73,,2013-07-04 11:22:00,
2013-07-04 07:34:00,65.0,64.0,30.33,WSW,251,2.0,6.0,95,0.05,,,2.73,,2013-07-04 11:34:00,
2013-07-04 07:43:00,65.0,63.0,30.33,WSW,245,2.0,7.0,94,0.00,,,2.73,,2013-07-04 11:43:00,
2013-07-04 07:53:00,65.0,63.0,30.33,WSW,245,2.0,7.0,94,0.00,,,2.73,,2013-07-04 11:53:00,
2013-07-04 08:02:00,64.0,63.0,30.34,North,0,0.0,5.0,96,0.05,,,2.78,,2013-07-04 12:02:00,
2013-07-04 08:12:00,64.0,63.0,30.34,West,267,3.0,6.0,97,0.13,,,2.86,,2013-07-04 12:12:00,
2013-07-04 08:33:00,64.0,63.0,30.34,West,261,1.0,11.0,95,0.20,,,2.93,,2013-07-04 12:33:00,
2013-07-04 08:43:00,65.0,64.0,30.33,WSW,239,2.0,13.0,95,0.20,,,2.93,,2013-07-04 12:43:00,
2013-07-04 08:52:00,65.0,64.0,30.33,WSW,239,2.0,13.0,95,0.20,,,2.93,,2013-07-04 12:52:00,
2013-07-04 09:12:00,66.0,64.0,30.35,SW,229,3.0,8.0,94,0.07,,,2.92,,2013-07-04 13:12:00,
2013-07-04 09:33:00,66.0,65.0,30.34,North,0,0.0,7.0,95,0.00,,,2.92,,2013-07-04 13:33:00,
2013-07-04 09:43:00,66.0,65.0,30.34,North,0,0.0,6.0,95,0.00,,,2.92,,2013-07-04 13:43:00,
2013-07-04 09:53:00,66.0,65.0,30.34,North,0,0.0,6.0,95,0.00,,,2.92,,2013-07-04 13:53:00,
2013-07-04 10:02:00,67.0,66.0,30.35,North,0,0.0,1.0,96,0.00,,,2.92,,2013-07-04 14:02:00,
2013-07-04 10:12:00,66.0,65.0,30.34,North,0,0.0,3.0,97,0.00,,,2.92,,2013-07-04 14:12:00,
2013-07-04 10:22:00,66.0,65.0,30.34,North,0,0.0,3.0,97,0.01,,,2.93,,2013-07-04 14:22:00,
2013-07-04 10:33:00,66.0,65.0,30.34,North,0,0.0,3.0,97,0.01,,,2.93,,2013-07-04 14:33:00,
2013-07-04 10:43:00,66.0,65.0,30.34,North,0,0.0,3.0,97,0.01,,,2.93,,2013-07-04 14:43:00,
2013-07-04 10:53:00,66.0,65.0,30.34,West,273,1.0,5.0,97,0.03,,,2.95,,2013-07-04 14:53:00,
2013-07-04 11:02:00,66.0,65.0,30.34,West,273,1.0,5.0,97,0.03,,,2.95,,2013-07-04 15:02:00,
2013-07-04 11:11:00,67.0,66.0,30.34,WNW,288,1.0,5.0,97,0.04,,,2.95,,2013-07-04 15:11:00,
2013-07-04 11:23:00,67.0,66.0,30.34,SW,229,2.0,8.0,97,0.03,,,2.95,,2013-07-04 15:23:00,
2013-07-04 11:33:00,67.0,66.0,30.34,SW,229,2.0,8.0,97,0.03,,,2.95,,2013-07-04 15:33:00,
2013-07-04 11:43:00,67.0,66.0,30.34,SW,236,1.0,5.0,96,0.06,,,2.98,,2013-07-04 15:43:00,
2013-07-04 11:52:00,66.0,65.0,30.35,SSW,210,2.0,9.0,95,0.21,,,3.15,,2013-07-04 15:52:00,
2013-07-04 12:02:00,66.0,65.0,30.35,SSW,210,2.0,9.0,95,0.21,,,3.15,,2013-07-04 16:02:00,
2013-07-04 12:11:00,66.0,65.0,30.35,SW,219,2.0,9.0,96,0.20,,,3.15,,2013-07-04 16:11:00,
2013-07-04 12:22:00,66.0,65.0,30.34,West,275,1.0,5.0,96,0.21,,,3.15,,2013-07-04 16:22:00,
2013-07-04 12:33:00,66.0,65.0,30.34,West,275,1.0,5.0,96,0.21,,,3.15,,2013-07-04 16:33:00,
2013-07-04 12:43:00,68.0,67.0,30.33,WSW,257,2.0,4.0,97,0.18,,,3.15,,2013-07-04 16:43:00,
2013-07-04 12:52:00,70.0,68.0,30.34,WNW,299,1.0,4.0,95,0.01,,,3.15,,2013-07-04 16:52:00,
2013-07-04 13:01:00,70.0,68.0,30.34,WNW,299,1.0,4.0,95,0.01,,,3.15,,2013-07-04 17:01:00,
2013-07-04 13:12:00,71.0,69.0,30.33,West,272,2.0,5.0,93,0.01,,,3.14,,2013-07-04 17:12:00,
2013-07-04 13:22:00,71.0,68.0,30.33,WNW,299,2.0,6.0,91,0.00,,,3.14,,2013-07-04 17:22:00,
2013-07-04 13:34:00,71.0,68.0,30.33,WNW,299,2.0,6.0,91,0.00,,,3.14,,2013-07-04 17:34:00,
2013-07-04 13:43:00,72.0,69.0,30.33,WNW,295,2.0,5.0,89,0.00,,,3.14,,2013-07-04 17:43:00,
2013-07-04 13:53:00,72.0,68.0,30.33,WNW,295,2.0,7.0,86,0.00,,,3.14,,2013-07-04 17:53:00,
2013-07-04 14:01:00,72.0,68.0,30.33,WNW,295,2.0,7.0,86,0.00,,,3.14,,2013-07-04 18:01:00,
2013-07-04 14:11:00,72.0,69.0,30.33,WNW,299,1.0,3.0,91,0.00,,,3.14,,2013-07-04 18:11:00,
2013-07-04 14:22:00,73.0,69.0,30.33,West,272,2.0,7.0,86,0.00,,,3.14,,2013-07-04 18:22:00,
2013-07-04 14:33:00,73.0,69.0,30.33,West,272,2.0,7.0,86,0.00,,,3.14,,2013-07-04 18:33:00,
2013-07-04 14:43:00,72.0,68.0,30.32,WNW,293,1.0,5.0,86,0.00,,,3.14,,2013-07-04 18:43:00,
2013-07-04 14:52:00,72.0,69.0,30.32,West,280,1.0,5.0,90,0.00,,,3.14,,2013-07-04 18:52:00,
2013-07-04 15:02:00,72.0,69.0,30.32,West,280,1.0,5.0,90,0.00,,,3.14,,2013-07-04 19:02:00,
2013-07-04 15:12:00,73.0,71.0,30.32,West,271,1.0,4.0,92,0.00,,,3.14,,2013-07-04 19:12:00,
2013-07-04 15:22:00,73.0,69.0,30.31,WNW,290,1.0,4.0,87,0.00,,,3.14,,2013-07-04 19:22:00,
2013-07-04 15:33:00,73.0,69.0,30.31,WNW,290,1.0,4.0,87,0.00,,,3.14,,2013-07-04 19:33:00,
2013-07-04 15:43:00,74.0,69.0,30.30,WNW,284,1.0,5.0,85,0.00,,,3.14,,2013-07-04 19:43:00,
2013-07-04 15:53:00,74.0,69.0,30.30,WNW,291,1.0,6.0,85,0.00,,,3.14,,2013-07-04 19:53:00,
2013-07-04 16:02:00,74.0,69.0,30.30,WNW,291,1.0,6.0,85,0.00,,,3.14,,2013-07-04 20:02:00,
2013-07-04 16:11:00,76.0,69.0,30.29,North,0,0.0,6.0,80,0.00,,,3.14,,2013-07-04 20:11:00,
2013-07-04 16:22:00,75.0,68.0,30.29,North,0,0.0,6.0,78,0.00,,,3.10,,2013-07-04 20:22:00,
2013-07-04 16:34:00,75.0,68.0,30.29,North,0,0.0,6.0,78,0.00,,,3.10,,2013-07-04 20:34:00,
2013-07-04 16:42:00,76.0,69.0,30.29,West,280,1.0,5.0,79,0.00,,,3.03,,2013-07-04 20:42:00,
2013-07-04 16:53:00,76.0,69.0,30.28,North,0,0.0,4.0,79,0.00,,,2.91,,2013-07-04 20:53:00,
2013-07-04 17:01:00,76.0,69.0,30.28,North,0,0.0,4.0,79,0.00,,,2.91,,2013-07-04 21:01:00,
2013-07-04 17:11:00,75.0,69.0,30.29,WNW,288,1.0,6.0,81,0.00,,,2.85,,2013-07-04 21:11:00,
2013-07-04 17:22:00,72.0,69.0,30.29,North,0,0.0,5.0,89,0.09,,,2.84,,2013-07-04 21:22:00,
2013-07-04 17:32:00,72.0,69.0,30.29,North,0,0.0,5.0,89,0.09,,,2.84,,2013-07-04 21:32:00,
2013-07-04 17:43:00,71.0,68.0,30.29,West,279,2.0,6.0,90,0.09,,,2.83,,2013-07-04 21:43:00,
2013-07-04 17:52:00,70.0,68.0,30.29,North,0,0.0,1.0,95,0.09,,,2.82,,2013-07-04 21:52:00,
2013-07-04 18:02:00,70.0,68.0,30.29,North,0,0.0,1.0,95,0.09,,,2.82,,2013-07-04 22:02:00,
2013-07-04 18:12:00,68.0,67.0,30.29,North,0,0.0,3.0,95,0.19,,,2.92,,2013-07-04 22:12:00,
2013-07-04 18:22:00,68.0,67.0,30.28,North,0,0.0,4.0,96,0.10,,,2.92,,2013-07-04 22:22:00,
2013-07-04 18:33:00,68.0,67.0,30.28,North,0,0.0,4.0,96,0.10,,,2.92,,2013-07-04 22:33:00,
2013-07-04 18:43:00,69.0,68.0,30.29,WNW,285,1.0,4.0,96,0.10,,,2.86,,2013-07-04 22:43:00,
2013-07-04 18:52:00,69.0,68.0,30.29,WNW,285,1.0,4.0,96,0.10,,,2.86,,2013-07-04 22:52:00,
2013-07-04 19:01:00,69.0,68.0,30.29,WNW,285,1.0,4.0,96,0.10,,,2.86,,2013-07-04 23:01:00,
2013-07-04 19:12:00,68.0,67.0,30.29,WNW,286,1.0,4.0,95,0.00,,,2.68,,2013-07-04 23:12:00,
2013-07-04 19:23:00,68.0,67.0,30.29,North,0,0.0,6.0,96,0.00,,,2.63,,2013-07-04 23:23:00,
2013-07-04 19:33:00,68.0,67.0,30.29,North,0,0.0,6.0,96,0.00,,,2.63,,2013-07-04 23:33:00,
2013-07-04 19:43:00,68.0,67.0,30.30,North,0,0.0,4.0,97,0.00,,,2.60,,2013-07-04 23:43:00,
2013-07-04 19:52:00,66.0,65.0,30.31,WNW,290,2.0,6.0,96,0.04,,,2.60,,2013-07-04 23:52:00,
2013-07-04 20:01:00,66.0,65.0,30.31,WNW,290,2.0,6.0,96,0.04,,,2.60,,2013-07-05 00:01:00,
2013-07-04 20:12:00,65.0,64.0,30.30,West,263,2.0,8.0,96,0.06,,,2.62,,2013-07-05 00:12:00,
2013-07-04 20:22:00,65.0,64.0,30.30,WSW,258,4.0,13.0,97,0.06,,,2.62,,2013-07-05 00:22:00,
2013-07-04 20:32:00,65.0,64.0,30.30,WSW,258,4.0,13.0,97,0.06,,,2.62,,2013-07-05 00:32:00,
2013-07-04 20:43:00,65.0,64.0,30.30,West,263,2.0,6.0,97,0.06,,,2.62,,2013-07-05 00:43:00,
2013-07-04 20:52:00,65.0,64.0,30.30,West,263,2.0,6.0,97,0.06,,,2.62,,2013-07-05 00:52:00,
2013-07-04 21:01:00,66.0,65.0,30.30,West,265,1.0,7.0,97,0.02,,,2.62,,2013-07-05 01:01:00,
2013-07-04 21:11:00,66.0,65.0,30.30,West,265,1.0,7.0,97,0.02,,,2.62,,2013-07-05 01:11:00,
2013-07-04 21:22:00,66.0,65.0,30.30,West,265,1.0,7.0,97,0.02,,,2.62,,2013-07-05 01:22:00,
2013-07-04 21:32:00,66.0,65.0,30.30,WSW,254,2.0,6.0,98,0.00,,,2.51,,2013-07-05 01:32:00,
2013-07-04 21:42:00,66.0,65.0,30.30,WSW,254,2.0,6.0,98,0.00,,,2.51,,2013-07-05 01:42:00,
2013-07-04 21:52:00,66.0,65.0,30.30,WSW,254,2.0,6.0,98,0.00,,,2.51,,2013-07-05 01:52:00,
2013-07-04 22:02:00,65.0,64.0,30.31,West,269,2.0,6.0,97,0.09,,,2.38,,2013-07-05 02:02:00,
2013-07-04 22:11:00,65.0,64.0,30.31,West,269,2.0,6.0,97,0.09,,,2.38,,2013-07-05 02:11:00,
2013-07-04 22:22:00,65.0,64.0,30.31,West,269,2.0,6.0,97,0.09,,,2.38,,2013-07-05 02:22:00,
2013-07-04 22:32:00,65.0,64.0,30.31,West,268,1.0,7.0,98,0.09,,,2.38,,2013-07-05 02:32:00,
2013-07-04 22:42:00,65.0,64.0,30.31,West,268,1.0,7.0,98,0.09,,,2.38,,2013-07-05 02:42:00,
2013-07-04 22:53:00,65.0,64.0,30.31,West,268,1.0,7.0,98,0.09,,,2.38,,2013-07-05 02:53:00,
2013-07-04 23:02:00,65.0,64.0,30.32,West,270,1.0,6.0,98,0.00,,,2.37,,2013-07-05 03:02:00,
2013-07-04 23:11:00,65.0,64.0,30.32,West,270,1.0,6.0,98,0.00,,,2.37,,2013-07-05 03:11:00,
2013-07-04 23:22:00,65.0,64.0,30.32,West,270,1.0,6.0,98,0.00,,,2.37,,2013-07-05 03:22:00,
2013-07-04 23:32:00,65.0,64.0,30.32,WSW,243,2.0,7.0,98,0.00,,,2.37,,2013-07-05 03:32:00,
2013-07-04 23:42:00,65.0,64.0,30.32,WSW,243,2.0,7.0,98,0.00,,,2.37,,2013-07-05 03:42:00,
2013-07-04 23:52:00,65.0,64.0,30.32,WSW,243,2.0,7.0,98,0.00,,,2.37,,2013-07-05 03:52:00,